sensor_id;sensor_type;location;lat;lon;timestamp;temperature;humidity
30973;DHT22;25423;45.624;13.790;2023-02-12T00:02:05;5.10;99.90
30973;DHT22;25423;45.624;13.790;2023-02-12T00:04:31;5.10;99.90
30973;DHT22;25423;45.624;13.790;2023-02-12T00:06:56;5.20;99.90
30973;DHT22;25423;45.624;13.790;2023-02-12T00:09:22;5.20;99.90
30973;DHT22;25423;45.624;13.790;2023-02-12T00:11:48;5.30;99.90
30973;DHT22;25423;45.624;13.790;2023-02-12T00:14:13;5.20;99.90
30973;DHT22;25423;45.624;13.790;2023-02-12T00:16:39;5.00;99.90
30973;DHT22;25423;45.624;13.790;2023-02-12T00:19:05;5.00;99.90
30973;DHT22;25423;45.624;13.790;2023-02-12T00:21:30;5.00;99.90
30973;DHT22;25423;45.624;13.790;2023-02-12T00:23:56;5.00;99.90
30973;DHT22;25423;45.624;13.790;2023-02-12T00:26:23;5.00;99.90
30973;DHT22;25423;45.624;13.790;2023-02-12T00:28:49;5.00;99.90
30973;DHT22;25423;45.624;13.790;2023-02-12T00:31:22;5.00;99.90
30973;DHT22;25423;45.624;13.790;2023-02-12T00:33:49;5.00;99.90
30973;DHT22;25423;45.624;13.790;2023-02-12T00:36:17;5.00;99.90
30973;DHT22;25423;45.624;13.790;2023-02-12T00:38:43;5.00;99.90
30973;DHT22;25423;45.624;13.790;2023-02-12T00:41:09;4.90;99.90
30973;DHT22;25423;45.624;13.790;2023-02-12T00:43:35;5.00;99.90
30973;DHT22;25423;45.624;13.790;2023-02-12T00:46:00;4.90;99.90
30973;DHT22;25423;45.624;13.790;2023-02-12T00:48:26;4.90;99.90
30973;DHT22;25423;45.624;13.790;2023-02-12T00:50:52;4.90;99.90
30973;DHT22;25423;45.624;13.790;2023-02-12T00:53:17;5.00;99.90
30973;DHT22;25423;45.624;13.790;2023-02-12T00:55:44;5.00;99.90
30973;DHT22;25423;45.624;13.790;2023-02-12T00:58:10;4.90;99.90
30973;DHT22;25423;45.624;13.790;2023-02-12T01:00:35;4.90;99.90
30973;DHT22;25423;45.624;13.790;2023-02-12T01:03:01;4.90;99.90
30973;DHT22;25423;45.624;13.790;2023-02-12T01:05:28;4.90;99.90
30973;DHT22;25423;45.624;13.790;2023-02-12T01:07:53;4.80;99.90
30973;DHT22;25423;45.624;13.790;2023-02-12T01:10:19;4.80;99.90
30973;DHT22;25423;45.624;13.790;2023-02-12T01:12:46;4.90;99.90
30973;DHT22;25423;45.624;13.790;2023-02-12T01:15:12;4.90;99.90
30973;DHT22;25423;45.624;13.790;2023-02-12T01:17:38;4.90;99.90
30973;DHT22;25423;45.624;13.790;2023-02-12T01:20:04;4.70;99.90
30973;DHT22;25423;45.624;13.790;2023-02-12T01:22:33;4.60;99.90
30973;DHT22;25423;45.624;13.790;2023-02-12T01:24:58;4.70;99.90
30973;DHT22;25423;45.624;13.790;2023-02-12T01:27:24;4.70;99.90
30973;DHT22;25423;45.624;13.790;2023-02-12T01:29:50;4.70;99.90
30973;DHT22;25423;45.624;13.790;2023-02-12T01:32:15;4.70;99.90
30973;DHT22;25423;45.624;13.790;2023-02-12T01:34:41;4.70;99.90
30973;DHT22;25423;45.624;13.790;2023-02-12T01:37:07;4.70;99.90
30973;DHT22;25423;45.624;13.790;2023-02-12T01:39:33;4.70;99.90
30973;DHT22;25423;45.624;13.790;2023-02-12T01:41:58;4.70;99.90
30973;DHT22;25423;45.624;13.790;2023-02-12T01:44:26;4.70;99.90
30973;DHT22;25423;45.624;13.790;2023-02-12T01:47:03;4.60;99.90
30973;DHT22;25423;45.624;13.790;2023-02-12T01:49:30;4.60;99.90
30973;DHT22;25423;45.624;13.790;2023-02-12T01:51:59;4.60;99.90
30973;DHT22;25423;45.624;13.790;2023-02-12T01:54:25;4.70;99.90
30973;DHT22;25423;45.624;13.790;2023-02-12T01:56:51;4.80;99.90
30973;DHT22;25423;45.624;13.790;2023-02-12T01:59:17;4.70;99.90
30973;DHT22;25423;45.624;13.790;2023-02-12T02:01:44;4.60;99.90
30973;DHT22;25423;45.624;13.790;2023-02-12T02:04:14;4.80;99.90
30973;DHT22;25423;45.624;13.790;2023-02-12T02:06:52;4.70;99.90
30973;DHT22;25423;45.624;13.790;2023-02-12T02:09:18;4.60;99.90
30973;DHT22;25423;45.624;13.790;2023-02-12T02:11:44;4.50;99.90
30973;DHT22;25423;45.624;13.790;2023-02-12T02:14:28;4.40;99.90
30973;DHT22;25423;45.624;13.790;2023-02-12T02:22:21;4.50;99.90
30973;DHT22;25423;45.624;13.790;2023-02-12T02:27:26;4.40;99.90
30973;DHT22;25423;45.624;13.790;2023-02-12T02:32:40;4.40;99.90
30973;DHT22;25423;45.624;13.790;2023-02-12T02:35:16;4.40;99.90
30973;DHT22;25423;45.624;13.790;2023-02-12T02:37:50;4.40;99.90
30973;DHT22;25423;45.624;13.790;2023-02-12T02:40:21;4.40;99.90
30973;DHT22;25423;45.624;13.790;2023-02-12T02:43:32;4.40;99.90
30973;DHT22;25423;45.624;13.790;2023-02-12T02:45:44;4.40;99.90
30973;DHT22;25423;45.624;13.790;2023-02-12T02:48:12;4.30;99.90
30973;DHT22;25423;45.624;13.790;2023-02-12T02:50:40;4.30;99.90
30973;DHT22;25423;45.624;13.790;2023-02-12T02:53:09;4.40;99.90
30973;DHT22;25423;45.624;13.790;2023-02-12T02:55:37;4.40;99.90
30973;DHT22;25423;45.624;13.790;2023-02-12T02:58:08;4.40;99.90
30973;DHT22;25423;45.624;13.790;2023-02-12T03:00:39;4.30;99.90
30973;DHT22;25423;45.624;13.790;2023-02-12T03:03:26;4.30;99.90
30973;DHT22;25423;45.624;13.790;2023-02-12T03:05:54;4.40;99.90
30973;DHT22;25423;45.624;13.790;2023-02-12T03:08:23;4.50;99.90
30973;DHT22;25423;45.624;13.790;2023-02-12T03:10:59;4.40;99.90
30973;DHT22;25423;45.624;13.790;2023-02-12T03:13:30;4.40;99.90
30973;DHT22;25423;45.624;13.790;2023-02-12T03:15:58;4.40;99.90
30973;DHT22;25423;45.624;13.790;2023-02-12T03:18:28;4.50;99.90
30973;DHT22;25423;45.624;13.790;2023-02-12T03:20:59;4.40;99.90
30973;DHT22;25423;45.624;13.790;2023-02-12T03:23:26;4.30;99.90
30973;DHT22;25423;45.624;13.790;2023-02-12T03:25:56;4.40;99.90
30973;DHT22;25423;45.624;13.790;2023-02-12T03:28:30;4.50;99.90
30973;DHT22;25423;45.624;13.790;2023-02-12T03:33:29;4.40;99.90
30973;DHT22;25423;45.624;13.790;2023-02-12T03:36:07;4.40;99.90
30973;DHT22;25423;45.624;13.790;2023-02-12T03:38:43;4.40;99.90
30973;DHT22;25423;45.624;13.790;2023-02-12T03:41:23;4.30;99.90
30973;DHT22;25423;45.624;13.790;2023-02-12T03:43:54;4.30;99.90
30973;DHT22;25423;45.624;13.790;2023-02-12T03:46:35;4.20;99.90
30973;DHT22;25423;45.624;13.790;2023-02-12T03:49:14;4.30;99.90
30973;DHT22;25423;45.624;13.790;2023-02-12T03:51:44;4.30;99.90
30973;DHT22;25423;45.624;13.790;2023-02-12T03:54:11;4.30;99.90
30973;DHT22;25423;45.624;13.790;2023-02-12T03:56:39;4.30;99.90
30973;DHT22;25423;45.624;13.790;2023-02-12T03:59:06;4.30;99.90
30973;DHT22;25423;45.624;13.790;2023-02-12T04:01:32;4.40;99.90
30973;DHT22;25423;45.624;13.790;2023-02-12T04:04:00;4.40;99.90
30973;DHT22;25423;45.624;13.790;2023-02-12T04:06:27;4.40;99.90
30973;DHT22;25423;45.624;13.790;2023-02-12T04:08:56;4.40;99.90
30973;DHT22;25423;45.624;13.790;2023-02-12T04:11:30;4.30;99.90
30973;DHT22;25423;45.624;13.790;2023-02-12T04:16:42;4.40;99.90
30973;DHT22;25423;45.624;13.790;2023-02-12T04:19:09;4.30;99.90
30973;DHT22;25423;45.624;13.790;2023-02-12T04:32:01;4.40;99.90
30973;DHT22;25423;45.624;13.790;2023-02-12T04:34:33;4.30;99.90
30973;DHT22;25423;45.624;13.790;2023-02-12T04:39:36;4.30;99.90
30973;DHT22;25423;45.624;13.790;2023-02-12T04:42:02;4.40;99.90
30973;DHT22;25423;45.624;13.790;2023-02-12T04:44:29;4.50;99.90
30973;DHT22;25423;45.624;13.790;2023-02-12T04:46:55;4.50;99.90
30973;DHT22;25423;45.624;13.790;2023-02-12T04:49:21;4.50;99.90
30973;DHT22;25423;45.624;13.790;2023-02-12T04:51:48;4.50;99.90
30973;DHT22;25423;45.624;13.790;2023-02-12T04:54:14;4.50;99.90
30973;DHT22;25423;45.624;13.790;2023-02-12T04:56:40;4.50;99.90
30973;DHT22;25423;45.624;13.790;2023-02-12T04:59:06;4.50;99.90
30973;DHT22;25423;45.624;13.790;2023-02-12T05:01:35;4.60;99.90
30973;DHT22;25423;45.624;13.790;2023-02-12T05:04:01;4.70;99.90
30973;DHT22;25423;45.624;13.790;2023-02-12T05:06:26;4.70;99.90
30973;DHT22;25423;45.624;13.790;2023-02-12T05:08:54;4.70;99.90
30973;DHT22;25423;45.624;13.790;2023-02-12T05:11:20;4.70;99.90
30973;DHT22;25423;45.624;13.790;2023-02-12T05:13:49;4.60;99.90
30973;DHT22;25423;45.624;13.790;2023-02-12T05:16:16;4.60;99.90
30973;DHT22;25423;45.624;13.790;2023-02-12T05:18:42;4.70;99.90
30973;DHT22;25423;45.624;13.790;2023-02-12T05:21:08;4.60;99.90
30973;DHT22;25423;45.624;13.790;2023-02-12T05:23:34;4.40;99.90
30973;DHT22;25423;45.624;13.790;2023-02-12T05:26:01;4.40;99.90
30973;DHT22;25423;45.624;13.790;2023-02-12T05:28:27;4.50;99.90
30973;DHT22;25423;45.624;13.790;2023-02-12T05:30:53;4.50;99.90
30973;DHT22;25423;45.624;13.790;2023-02-12T05:33:19;4.50;99.90
30973;DHT22;25423;45.624;13.790;2023-02-12T05:35:45;4.50;99.90
30973;DHT22;25423;45.624;13.790;2023-02-12T05:38:10;4.40;99.90
30973;DHT22;25423;45.624;13.790;2023-02-12T05:40:36;4.40;99.90
30973;DHT22;25423;45.624;13.790;2023-02-12T05:43:02;4.40;99.90
30973;DHT22;25423;45.624;13.790;2023-02-12T05:45:28;4.40;99.90
30973;DHT22;25423;45.624;13.790;2023-02-12T05:47:54;4.30;99.90
30973;DHT22;25423;45.624;13.790;2023-02-12T05:50:20;4.40;99.90
30973;DHT22;25423;45.624;13.790;2023-02-12T05:52:45;4.40;99.90
30973;DHT22;25423;45.624;13.790;2023-02-12T05:55:11;4.50;99.90
30973;DHT22;25423;45.624;13.790;2023-02-12T05:57:37;4.50;99.90
30973;DHT22;25423;45.624;13.790;2023-02-12T06:00:03;4.40;99.90
30973;DHT22;25423;45.624;13.790;2023-02-12T06:02:29;4.50;99.90
30973;DHT22;25423;45.624;13.790;2023-02-12T06:04:55;4.40;99.90
30973;DHT22;25423;45.624;13.790;2023-02-12T06:07:20;4.30;99.90
30973;DHT22;25423;45.624;13.790;2023-02-12T06:09:47;4.30;99.90
30973;DHT22;25423;45.624;13.790;2023-02-12T06:12:12;4.30;99.90
30973;DHT22;25423;45.624;13.790;2023-02-12T06:14:39;4.20;99.90
30973;DHT22;25423;45.624;13.790;2023-02-12T06:17:05;4.20;99.90
30973;DHT22;25423;45.624;13.790;2023-02-12T06:19:31;4.30;99.90
30973;DHT22;25423;45.624;13.790;2023-02-12T06:21:56;4.20;99.90
30973;DHT22;25423;45.624;13.790;2023-02-12T06:24:22;4.10;99.90
30973;DHT22;25423;45.624;13.790;2023-02-12T06:26:48;4.10;99.90
30973;DHT22;25423;45.624;13.790;2023-02-12T06:29:15;4.10;99.90
30973;DHT22;25423;45.624;13.790;2023-02-12T06:31:41;4.10;99.90
30973;DHT22;25423;45.624;13.790;2023-02-12T06:34:07;4.10;99.90
30973;DHT22;25423;45.624;13.790;2023-02-12T06:36:41;4.10;99.90
30973;DHT22;25423;45.624;13.790;2023-02-12T06:39:09;4.20;99.90
30973;DHT22;25423;45.624;13.790;2023-02-12T06:41:35;4.10;99.90
30973;DHT22;25423;45.624;13.790;2023-02-12T06:44:01;4.00;99.90
30973;DHT22;25423;45.624;13.790;2023-02-12T06:46:26;4.00;99.90
30973;DHT22;25423;45.624;13.790;2023-02-12T06:48:55;4.00;99.90
30973;DHT22;25423;45.624;13.790;2023-02-12T06:51:22;4.00;99.90
30973;DHT22;25423;45.624;13.790;2023-02-12T06:53:48;4.10;99.90
30973;DHT22;25423;45.624;13.790;2023-02-12T06:56:14;4.10;99.90
30973;DHT22;25423;45.624;13.790;2023-02-12T06:58:40;4.20;99.90
30973;DHT22;25423;45.624;13.790;2023-02-12T07:01:07;4.30;99.90
30973;DHT22;25423;45.624;13.790;2023-02-12T07:03:34;4.30;99.90
30973;DHT22;25423;45.624;13.790;2023-02-12T07:06:02;4.40;99.90
30973;DHT22;25423;45.624;13.790;2023-02-12T07:08:27;4.40;99.90
30973;DHT22;25423;45.624;13.790;2023-02-12T07:10:53;4.50;99.90
30973;DHT22;25423;45.624;13.790;2023-02-12T07:13:19;4.50;99.90
30973;DHT22;25423;45.624;13.790;2023-02-12T07:15:44;4.60;99.90
30973;DHT22;25423;45.624;13.790;2023-02-12T07:18:10;4.60;99.90
30973;DHT22;25423;45.624;13.790;2023-02-12T07:20:35;4.70;99.90
30973;DHT22;25423;45.624;13.790;2023-02-12T07:23:01;4.80;99.90
30973;DHT22;25423;45.624;13.790;2023-02-12T07:25:27;4.70;99.90
30973;DHT22;25423;45.624;13.790;2023-02-12T07:27:52;4.80;99.90
30973;DHT22;25423;45.624;13.790;2023-02-12T07:30:18;4.90;99.90
30973;DHT22;25423;45.624;13.790;2023-02-12T07:32:44;5.00;99.90
30973;DHT22;25423;45.624;13.790;2023-02-12T07:35:09;5.10;99.90
30973;DHT22;25423;45.624;13.790;2023-02-12T07:37:35;5.10;99.90
30973;DHT22;25423;45.624;13.790;2023-02-12T07:40:01;5.20;99.90
30973;DHT22;25423;45.624;13.790;2023-02-12T07:42:26;5.40;99.90
30973;DHT22;25423;45.624;13.790;2023-02-12T07:44:53;5.50;99.90
30973;DHT22;25423;45.624;13.790;2023-02-12T07:47:19;5.50;99.90
30973;DHT22;25423;45.624;13.790;2023-02-12T07:49:44;5.50;99.90
30973;DHT22;25423;45.624;13.790;2023-02-12T07:52:10;5.50;99.90
30973;DHT22;25423;45.624;13.790;2023-02-12T07:54:36;5.60;99.90
30973;DHT22;25423;45.624;13.790;2023-02-12T07:57:02;5.60;99.90
30973;DHT22;25423;45.624;13.790;2023-02-12T07:59:27;5.90;99.90
30973;DHT22;25423;45.624;13.790;2023-02-12T08:01:53;5.80;99.90
30973;DHT22;25423;45.624;13.790;2023-02-12T08:04:21;5.90;99.90
30973;DHT22;25423;45.624;13.790;2023-02-12T08:06:48;6.00;99.90
30973;DHT22;25423;45.624;13.790;2023-02-12T08:09:15;6.00;99.90
30973;DHT22;25423;45.624;13.790;2023-02-12T08:11:41;6.10;99.90
30973;DHT22;25423;45.624;13.790;2023-02-12T08:14:08;6.20;99.90
30973;DHT22;25423;45.624;13.790;2023-02-12T08:16:35;6.20;99.90
30973;DHT22;25423;45.624;13.790;2023-02-12T08:19:01;6.40;99.90
30973;DHT22;25423;45.624;13.790;2023-02-12T08:21:27;6.60;99.90
30973;DHT22;25423;45.624;13.790;2023-02-12T08:23:53;6.50;99.90
30973;DHT22;25423;45.624;13.790;2023-02-12T08:26:26;6.50;99.90
30973;DHT22;25423;45.624;13.790;2023-02-12T08:28:56;6.50;99.90
30973;DHT22;25423;45.624;13.790;2023-02-12T08:31:23;6.50;99.90
30973;DHT22;25423;45.624;13.790;2023-02-12T08:33:49;6.60;99.90
30973;DHT22;25423;45.624;13.790;2023-02-12T08:36:16;6.80;99.90
30973;DHT22;25423;45.624;13.790;2023-02-12T08:38:43;6.70;99.90
30973;DHT22;25423;45.624;13.790;2023-02-12T08:41:10;6.70;99.90
30973;DHT22;25423;45.624;13.790;2023-02-12T08:43:36;6.90;99.90
30973;DHT22;25423;45.624;13.790;2023-02-12T08:46:02;7.00;99.90
30973;DHT22;25423;45.624;13.790;2023-02-12T08:48:28;7.10;99.90
30973;DHT22;25423;45.624;13.790;2023-02-12T08:50:54;7.10;99.90
30973;DHT22;25423;45.624;13.790;2023-02-12T08:53:19;7.30;99.90
30973;DHT22;25423;45.624;13.790;2023-02-12T08:55:48;7.40;99.90
30973;DHT22;25423;45.624;13.790;2023-02-12T08:58:14;7.40;99.90
30973;DHT22;25423;45.624;13.790;2023-02-12T09:00:40;7.50;99.90
30973;DHT22;25423;45.624;13.790;2023-02-12T09:03:05;7.60;99.90
30973;DHT22;25423;45.624;13.790;2023-02-12T09:05:31;7.70;99.90
30973;DHT22;25423;45.624;13.790;2023-02-12T09:07:56;7.70;99.90
30973;DHT22;25423;45.624;13.790;2023-02-12T09:10:22;7.80;99.90
30973;DHT22;25423;45.624;13.790;2023-02-12T09:12:48;7.70;99.90
30973;DHT22;25423;45.624;13.790;2023-02-12T09:15:13;7.80;99.90
30973;DHT22;25423;45.624;13.790;2023-02-12T09:17:39;8.00;99.90
30973;DHT22;25423;45.624;13.790;2023-02-12T09:20:07;8.00;99.90
30973;DHT22;25423;45.624;13.790;2023-02-12T09:22:33;8.10;99.90
30973;DHT22;25423;45.624;13.790;2023-02-12T09:25:03;8.20;99.90
30973;DHT22;25423;45.624;13.790;2023-02-12T09:27:29;8.20;99.90
30973;DHT22;25423;45.624;13.790;2023-02-12T09:29:54;8.20;99.90
30973;DHT22;25423;45.624;13.790;2023-02-12T09:32:20;8.10;99.90
30973;DHT22;25423;45.624;13.790;2023-02-12T09:34:45;8.10;99.90
30973;DHT22;25423;45.624;13.790;2023-02-12T09:37:11;8.10;99.90
30973;DHT22;25423;45.624;13.790;2023-02-12T09:39:37;8.10;99.90
30973;DHT22;25423;45.624;13.790;2023-02-12T09:44:34;8.30;99.90
30973;DHT22;25423;45.624;13.790;2023-02-12T09:47:20;8.20;99.90
30973;DHT22;25423;45.624;13.790;2023-02-12T09:52:21;8.30;99.90
30973;DHT22;25423;45.624;13.790;2023-02-12T09:54:48;8.40;99.90
30973;DHT22;25423;45.624;13.790;2023-02-12T10:00:26;8.40;99.90
30973;DHT22;25423;45.624;13.790;2023-02-12T10:02:33;8.40;99.90
30973;DHT22;25423;45.624;13.790;2023-02-12T10:04:59;8.30;99.90
30973;DHT22;25423;45.624;13.790;2023-02-12T10:12:39;8.50;99.90
30973;DHT22;25423;45.624;13.790;2023-02-12T10:27:52;8.70;99.90
30973;DHT22;25423;45.624;13.790;2023-02-12T10:30:20;8.80;99.90
30973;DHT22;25423;45.624;13.790;2023-02-12T10:32:48;8.80;99.90
30973;DHT22;25423;45.624;13.790;2023-02-12T10:35:15;8.90;99.90
30973;DHT22;25423;45.624;13.790;2023-02-12T10:37:50;9.00;99.90
30973;DHT22;25423;45.624;13.790;2023-02-12T10:40:27;9.10;99.90
30973;DHT22;25423;45.624;13.790;2023-02-12T10:42:55;9.20;99.90
30973;DHT22;25423;45.624;13.790;2023-02-12T10:45:28;9.40;99.90
30973;DHT22;25423;45.624;13.790;2023-02-12T10:48:02;9.50;99.90
30973;DHT22;25423;45.624;13.790;2023-02-12T10:50:40;9.60;99.90
30973;DHT22;25423;45.624;13.790;2023-02-12T10:53:08;9.60;99.90
30973;DHT22;25423;45.624;13.790;2023-02-12T10:55:36;9.70;99.90
30973;DHT22;25423;45.624;13.790;2023-02-12T10:58:03;9.70;99.90
30973;DHT22;25423;45.624;13.790;2023-02-12T11:03:03;9.80;99.90
30973;DHT22;25423;45.624;13.790;2023-02-12T11:05:30;9.70;99.90
30973;DHT22;25423;45.624;13.790;2023-02-12T11:07:56;9.70;99.90
30973;DHT22;25423;45.624;13.790;2023-02-12T11:10:31;9.60;99.90
30973;DHT22;25423;45.624;13.790;2023-02-12T11:13:00;9.60;99.90
30973;DHT22;25423;45.624;13.790;2023-02-12T11:15:29;9.60;99.90
30973;DHT22;25423;45.624;13.790;2023-02-12T11:18:00;9.60;99.90
30973;DHT22;25423;45.624;13.790;2023-02-12T11:20:28;9.60;99.90
30973;DHT22;25423;45.624;13.790;2023-02-12T11:22:58;9.70;99.90
30973;DHT22;25423;45.624;13.790;2023-02-12T11:25:25;9.70;99.90
30973;DHT22;25423;45.624;13.790;2023-02-12T11:28:24;9.60;99.90
30973;DHT22;25423;45.624;13.790;2023-02-12T11:30:50;9.70;99.90
30973;DHT22;25423;45.624;13.790;2023-02-12T11:35:49;9.50;99.90
30973;DHT22;25423;45.624;13.790;2023-02-12T11:38:23;9.50;99.90
30973;DHT22;25423;45.624;13.790;2023-02-12T11:40:49;9.50;99.90
30973;DHT22;25423;45.624;13.790;2023-02-12T11:43:15;9.50;99.90
30973;DHT22;25423;45.624;13.790;2023-02-12T11:45:43;9.40;99.90
30973;DHT22;25423;45.624;13.790;2023-02-12T11:48:18;9.40;99.90
30973;DHT22;25423;45.624;13.790;2023-02-12T11:50:47;9.40;99.90
30973;DHT22;25423;45.624;13.790;2023-02-12T11:53:18;9.40;99.90
30973;DHT22;25423;45.624;13.790;2023-02-12T11:55:52;9.40;99.90
30973;DHT22;25423;45.624;13.790;2023-02-12T11:58:22;9.40;99.90
30973;DHT22;25423;45.624;13.790;2023-02-12T12:01:06;9.40;99.90
30973;DHT22;25423;45.624;13.790;2023-02-12T12:25:05;9.50;99.90
30973;DHT22;25423;45.624;13.790;2023-02-12T12:28:24;9.60;99.90
30973;DHT22;25423;45.624;13.790;2023-02-12T12:33:02;9.50;99.90
30973;DHT22;25423;45.624;13.790;2023-02-12T12:35:36;9.50;99.90
30973;DHT22;25423;45.624;13.790;2023-02-12T12:38:07;9.50;99.90
30973;DHT22;25423;45.624;13.790;2023-02-12T13:01:38;9.70;99.90
30973;DHT22;25423;45.624;13.790;2023-02-12T13:06:39;9.70;99.90
30973;DHT22;25423;45.624;13.790;2023-02-12T13:11:53;9.80;99.90
30973;DHT22;25423;45.624;13.790;2023-02-12T13:14:26;9.80;99.90
30973;DHT22;25423;45.624;13.790;2023-02-12T13:16:57;9.80;99.90
30973;DHT22;25423;45.624;13.790;2023-02-12T13:22:36;9.70;99.90
30973;DHT22;25423;45.624;13.790;2023-02-12T13:25:21;9.80;99.90
30973;DHT22;25423;45.624;13.790;2023-02-12T13:27:48;9.80;99.90
30973;DHT22;25423;45.624;13.790;2023-02-12T13:30:20;9.80;99.90
30973;DHT22;25423;45.624;13.790;2023-02-12T13:35:30;10.00;99.90
30973;DHT22;25423;45.624;13.790;2023-02-12T13:37:57;10.00;99.90
30973;DHT22;25423;45.624;13.790;2023-02-12T13:40:24;10.00;99.90
30973;DHT22;25423;45.624;13.790;2023-02-12T13:50:53;10.00;99.90
30973;DHT22;25423;45.624;13.790;2023-02-12T13:58:49;10.30;99.90
30973;DHT22;25423;45.624;13.790;2023-02-12T14:02:00;10.40;99.90
30973;DHT22;25423;45.624;13.790;2023-02-12T14:06:51;10.50;99.90
30973;DHT22;25423;45.624;13.790;2023-02-12T14:09:19;10.60;99.90
30973;DHT22;25423;45.624;13.790;2023-02-12T14:11:47;10.60;99.90
30973;DHT22;25423;45.624;13.790;2023-02-12T14:14:22;10.50;99.90
30973;DHT22;25423;45.624;13.790;2023-02-12T14:16:49;10.70;99.90
30973;DHT22;25423;45.624;13.790;2023-02-12T14:21:59;10.70;99.90
30973;DHT22;25423;45.624;13.790;2023-02-12T14:27:06;10.80;99.90
30973;DHT22;25423;45.624;13.790;2023-02-12T14:29:55;10.80;99.90
30973;DHT22;25423;45.624;13.790;2023-02-12T14:35:29;10.80;99.90
30973;DHT22;25423;45.624;13.790;2023-02-12T14:37:58;10.80;99.90
30973;DHT22;25423;45.624;13.790;2023-02-12T14:45:43;10.90;99.90
30973;DHT22;25423;45.624;13.790;2023-02-12T14:48:09;11.00;99.90
30973;DHT22;25423;45.624;13.790;2023-02-12T14:50:54;11.10;99.90
30973;DHT22;25423;45.624;13.790;2023-02-12T14:55:46;11.10;99.90
30973;DHT22;25423;45.624;13.790;2023-02-12T14:58:19;11.20;99.90
30973;DHT22;25423;45.624;13.790;2023-02-12T15:00:45;11.20;99.90
30973;DHT22;25423;45.624;13.790;2023-02-12T15:11:05;11.30;99.90
30973;DHT22;25423;45.624;13.790;2023-02-12T15:13:41;11.30;99.90
30973;DHT22;25423;45.624;13.790;2023-02-12T15:18:49;11.40;99.90
30973;DHT22;25423;45.624;13.790;2023-02-12T15:23:45;11.30;99.90
30973;DHT22;25423;45.624;13.790;2023-02-12T15:26:12;11.30;99.90
30973;DHT22;25423;45.624;13.790;2023-02-12T15:28:38;11.30;99.90
30973;DHT22;25423;45.624;13.790;2023-02-12T15:31:04;11.30;99.90
30973;DHT22;25423;45.624;13.790;2023-02-12T15:33:35;11.30;99.90
30973;DHT22;25423;45.624;13.790;2023-02-12T15:36:02;11.50;99.90
30973;DHT22;25423;45.624;13.790;2023-02-12T15:38:32;11.40;99.90
30973;DHT22;25423;45.624;13.790;2023-02-12T15:40:59;11.40;99.90
30973;DHT22;25423;45.624;13.790;2023-02-12T15:43:26;11.30;99.90
30973;DHT22;25423;45.624;13.790;2023-02-12T15:45:53;11.40;99.90
30973;DHT22;25423;45.624;13.790;2023-02-12T15:48:19;11.40;99.90
30973;DHT22;25423;45.624;13.790;2023-02-12T15:50:52;11.30;99.90
30973;DHT22;25423;45.624;13.790;2023-02-12T15:53:21;11.30;99.90
30973;DHT22;25423;45.624;13.790;2023-02-12T15:55:47;11.30;99.90
30973;DHT22;25423;45.624;13.790;2023-02-12T15:58:23;11.30;99.90
30973;DHT22;25423;45.624;13.790;2023-02-12T16:00:50;11.30;99.90
30973;DHT22;25423;45.624;13.790;2023-02-12T16:05:48;11.20;99.90
30973;DHT22;25423;45.624;13.790;2023-02-12T16:08:15;11.20;99.90
30973;DHT22;25423;45.624;13.790;2023-02-12T16:10:42;11.20;99.90
30973;DHT22;25423;45.624;13.790;2023-02-12T16:13:10;11.10;99.90
30973;DHT22;25423;45.624;13.790;2023-02-12T16:15:40;11.10;99.90
30973;DHT22;25423;45.624;13.790;2023-02-12T16:18:06;11.00;99.90
30973;DHT22;25423;45.624;13.790;2023-02-12T16:20:47;10.90;99.90
30973;DHT22;25423;45.624;13.790;2023-02-12T16:23:14;10.80;99.90
30973;DHT22;25423;45.624;13.790;2023-02-12T16:25:40;10.70;99.90
30973;DHT22;25423;45.624;13.790;2023-02-12T16:28:13;10.70;99.90
30973;DHT22;25423;45.624;13.790;2023-02-12T16:30:40;10.80;99.90
30973;DHT22;25423;45.624;13.790;2023-02-12T16:36:01;10.60;99.90
30973;DHT22;25423;45.624;13.790;2023-02-12T16:38:38;10.60;99.90
30973;DHT22;25423;45.624;13.790;2023-02-12T16:46:23;10.40;99.90
30973;DHT22;25423;45.624;13.790;2023-02-12T16:48:50;10.40;99.90
30973;DHT22;25423;45.624;13.790;2023-02-12T16:51:20;10.40;99.90
30973;DHT22;25423;45.624;13.790;2023-02-12T16:53:46;10.40;99.90
30973;DHT22;25423;45.624;13.790;2023-02-12T16:56:15;10.40;99.90
30973;DHT22;25423;45.624;13.790;2023-02-12T16:58:52;10.30;99.90
30973;DHT22;25423;45.624;13.790;2023-02-12T17:01:21;10.20;99.90
30973;DHT22;25423;45.624;13.790;2023-02-12T17:03:47;10.30;99.90
30973;DHT22;25423;45.624;13.790;2023-02-12T17:06:15;10.10;99.90
30973;DHT22;25423;45.624;13.790;2023-02-12T17:08:41;10.00;99.90
30973;DHT22;25423;45.624;13.790;2023-02-12T17:11:06;9.90;99.90
30973;DHT22;25423;45.624;13.790;2023-02-12T17:13:32;10.00;99.90
30973;DHT22;25423;45.624;13.790;2023-02-12T17:15:58;9.90;99.90
30973;DHT22;25423;45.624;13.790;2023-02-12T17:18:26;10.20;99.90
30973;DHT22;25423;45.624;13.790;2023-02-12T17:20:59;10.20;99.90
30973;DHT22;25423;45.624;13.790;2023-02-12T17:23:26;10.00;99.90
30973;DHT22;25423;45.624;13.790;2023-02-12T17:25:52;9.80;99.90
30973;DHT22;25423;45.624;13.790;2023-02-12T17:28:17;9.70;99.90
30973;DHT22;25423;45.624;13.790;2023-02-12T17:30:43;9.40;99.90
30973;DHT22;25423;45.624;13.790;2023-02-12T17:33:09;9.20;99.90
30973;DHT22;25423;45.624;13.790;2023-02-12T17:35:36;9.10;99.90
30973;DHT22;25423;45.624;13.790;2023-02-12T17:38:01;9.00;99.90
30973;DHT22;25423;45.624;13.790;2023-02-12T17:40:27;9.00;99.90
30973;DHT22;25423;45.624;13.790;2023-02-12T17:42:52;9.00;99.90
30973;DHT22;25423;45.624;13.790;2023-02-12T17:45:18;8.90;99.90
30973;DHT22;25423;45.624;13.790;2023-02-12T17:47:44;8.80;99.90
30973;DHT22;25423;45.624;13.790;2023-02-12T17:50:12;8.70;99.90
30973;DHT22;25423;45.624;13.790;2023-02-12T17:52:38;8.70;99.90
30973;DHT22;25423;45.624;13.790;2023-02-12T17:55:03;8.70;99.90
30973;DHT22;25423;45.624;13.790;2023-02-12T17:57:30;8.80;99.90
30973;DHT22;25423;45.624;13.790;2023-02-12T17:59:56;9.00;99.90
30973;DHT22;25423;45.624;13.790;2023-02-12T18:02:22;9.00;99.90
30973;DHT22;25423;45.624;13.790;2023-02-12T18:04:47;9.00;99.90
30973;DHT22;25423;45.624;13.790;2023-02-12T18:07:13;8.90;99.90
30973;DHT22;25423;45.624;13.790;2023-02-12T18:09:38;8.90;99.90
30973;DHT22;25423;45.624;13.790;2023-02-12T18:12:04;8.90;99.90
30973;DHT22;25423;45.624;13.790;2023-02-12T18:14:30;9.10;99.90
30973;DHT22;25423;45.624;13.790;2023-02-12T18:16:56;8.80;99.90
30973;DHT22;25423;45.624;13.790;2023-02-12T18:19:23;8.90;99.90
30973;DHT22;25423;45.624;13.790;2023-02-12T18:21:49;8.90;99.90
30973;DHT22;25423;45.624;13.790;2023-02-12T18:24:14;8.80;99.90
30973;DHT22;25423;45.624;13.790;2023-02-12T18:26:40;9.00;99.90